createdAt,value
2023-05-19T00:01:52.559Z,102819.25
2023-05-19T00:04:40.596Z,102814.19
2023-05-19T00:07:32.545Z,102818.81
2023-05-19T00:10:19.939Z,102814.72
2023-05-19T00:13:07.024Z,102824.94
2023-05-19T00:15:54.810Z,102818.13
2023-05-19T00:18:43.430Z,102801.31
2023-05-19T00:21:30.143Z,102800.66
2023-05-19T00:24:16.642Z,102791.25
2023-05-19T00:27:03.419Z,102792.22
2023-05-19T00:29:50.079Z,102809.34
2023-05-19T00:32:36.862Z,102801.97
2023-05-19T00:35:25.371Z,102783.41
2023-05-19T00:38:12.058Z,102782.09
2023-05-19T00:40:58.750Z,102787.69
2023-05-19T00:43:45.667Z,102793.88
2023-05-19T00:46:32.367Z,102807.88
2023-05-19T00:49:18.827Z,102811.47
2023-05-19T00:52:07.965Z,102810.59
2023-05-19T00:54:54.966Z,102807.97
2023-05-19T00:57:41.329Z,102812.25
2023-05-19T01:00:28.236Z,102807.91
2023-05-19T01:03:15.224Z,102801.78
2023-05-19T01:06:05.088Z,102809.25
2023-05-19T01:08:53.445Z,102805.84
2023-05-19T01:11:40.049Z,102812.75
2023-05-19T01:14:26.735Z,102803.09
2023-05-19T01:17:19.044Z,102795.19
2023-05-19T01:20:13.642Z,102785.84
2023-05-19T01:23:15.260Z,102799.78
2023-05-19T01:26:19.385Z,102799.91
2023-05-19T01:29:14.702Z,102799.97
2023-05-19T01:32:06.029Z,102801.75
2023-05-19T01:34:55.052Z,102801.75
2023-05-19T01:37:42.504Z,102798.28
2023-05-19T01:40:30.867Z,102801.75
2023-05-19T01:43:19.538Z,102799.97
2023-05-19T01:46:06.758Z,102801.63
2023-05-19T01:48:54.652Z,102799.91
2023-05-19T01:51:41.941Z,102807.66
2023-05-19T01:54:28.366Z,102799.91
2023-05-19T01:57:20.680Z,102803.38
2023-05-19T02:00:12.719Z,102816.28
2023-05-19T02:03:12.530Z,102805.06
2023-05-19T02:06:07.684Z,102811.94
2023-05-19T02:08:59.696Z,102810.16
2023-05-19T02:11:53.903Z,102808.44
2023-05-19T02:14:41.854Z,102805.75
2023-05-19T02:17:33.719Z,102799.69
2023-05-19T02:20:22.276Z,102793.56
2023-05-19T02:23:10.452Z,102792.66
2023-05-19T02:25:57.196Z,102795.19
2023-05-19T02:28:44.064Z,102796.03
2023-05-19T02:31:30.873Z,102790.72
2023-05-19T02:34:17.470Z,102796.78
2023-05-19T02:37:04.226Z,102795.91
2023-05-19T02:39:52.828Z,102799.34
2023-05-19T02:42:39.300Z,102801.84
2023-05-19T02:45:28.522Z,102806.16
2023-05-19T02:48:17.367Z,102808.69
2023-05-19T02:51:04.285Z,102808.66
2023-05-19T02:53:51.006Z,102815.53
2023-05-19T02:56:39.079Z,102816.38
2023-05-19T02:59:25.928Z,102819.81
2023-05-19T03:02:12.515Z,102816.28
2023-05-19T03:05:01.615Z,102811.00
2023-05-19T03:07:48.319Z,102790.19
2023-05-19T03:10:34.979Z,102795.38
2023-05-19T03:13:22.905Z,102791.91
2023-05-19T03:16:09.902Z,102788.56
2023-05-19T03:18:56.765Z,102792.03
2023-05-19T03:21:43.706Z,102792.06
2023-05-19T03:24:30.656Z,102789.31
2023-05-19T03:27:17.678Z,102780.69
2023-05-19T03:30:06.772Z,102779.94
2023-05-19T03:32:58.552Z,102787.69
2023-05-19T03:35:45.434Z,102792.06
2023-05-19T03:38:32.587Z,102787.78
2023-05-19T03:41:19.943Z,102784.19
2023-05-19T03:44:06.605Z,102785.03
2023-05-19T03:46:54.717Z,102775.47
2023-05-19T03:50:01.227Z,102780.88
2023-05-19T03:53:20.695Z,102763.41
2023-05-19T03:56:07.810Z,102767.06
2023-05-19T03:58:54.828Z,102770.44
2023-05-19T04:01:41.314Z,102768.81
2023-05-19T04:04:30.795Z,102769.59
2023-05-19T04:07:17.060Z,102773.06
2023-05-19T04:10:05.424Z,102772.31
2023-05-19T04:12:52.203Z,102776.69
2023-05-19T04:15:38.955Z,102781.13
2023-05-19T04:18:28.917Z,102781.09
2023-05-19T04:21:17.032Z,102775.59
2023-05-19T04:24:06.405Z,102769.63
2023-05-19T04:26:53.675Z,102775.75
2023-05-19T04:29:40.930Z,102769.78
2023-05-19T04:32:29.306Z,102773.38
2023-05-19T04:35:17.598Z,102782.09
2023-05-19T04:38:05.899Z,102776.03
2023-05-19T04:40:53.644Z,102782.19
2023-05-19T04:43:41.859Z,102777.78
2023-05-19T04:46:30.378Z,102775.38
2023-05-19T04:49:19.294Z,102772.06
2023-05-19T04:52:07.787Z,102782.72
2023-05-19T04:54:56.006Z,102775.13
2023-05-19T04:57:44.013Z,102781.25
2023-05-19T05:00:31.217Z,102780.41
2023-05-19T05:03:24.461Z,102771.13
2023-05-19T05:06:13.974Z,102767.75
2023-05-19T05:09:03.716Z,102770.44
2023-05-19T05:11:52.463Z,102763.66
2023-05-19T05:14:40.323Z,102764.47
2023-05-19T05:17:28.311Z,102764.47
2023-05-19T05:20:16.058Z,102761.25
2023-05-19T05:23:03.096Z,102757.06
2023-05-19T05:25:51.457Z,102758.03
2023-05-19T05:28:39.616Z,102757.16
2023-05-19T05:31:26.530Z,102765.78
2023-05-19T05:34:13.169Z,102762.34
2023-05-19T05:36:59.939Z,102762.53
2023-05-19T05:39:46.641Z,102765.22
2023-05-19T05:42:33.800Z,102779.16
2023-05-19T05:45:22.486Z,102775.88
2023-05-19T05:48:10.432Z,102786.34
2023-05-19T05:50:58.069Z,102784.72
2023-05-19T05:53:51.849Z,102788.28
2023-05-19T05:56:39.373Z,102794.38
2023-05-19T05:59:28.143Z,102784.25
2023-05-19T06:02:16.520Z,102784.44
2023-05-19T06:05:03.423Z,102793.16
2023-05-19T06:07:49.976Z,102782.84
2023-05-19T06:10:44.068Z,102788.97
2023-05-19T06:13:32.482Z,102789.97
2023-05-19T06:16:19.114Z,102787.59
2023-05-19T06:19:08.864Z,102791.16
2023-05-19T06:21:57.644Z,102794.66
2023-05-19T06:24:44.651Z,102790.47
2023-05-19T06:27:33.292Z,102800.88
2023-05-19T06:30:22.910Z,102794.00
2023-05-19T06:33:18.949Z,102794.09
2023-05-19T06:36:08.516Z,102802.88
2023-05-19T06:38:55.328Z,102795.97
2023-05-19T06:41:42.564Z,102794.38
2023-05-19T06:44:29.318Z,102791.06
2023-05-19T06:47:16.288Z,102786.75
2023-05-19T06:50:04.094Z,102787.63
2023-05-19T06:52:57.244Z,102792.81
2023-05-19T06:55:57.511Z,102790.22
2023-05-19T06:58:46.715Z,102789.31
2023-05-19T07:01:34.360Z,102792.84
2023-05-19T07:04:21.190Z,102800.72
2023-05-19T07:07:07.835Z,102804.22
2023-05-19T07:09:55.935Z,102805.28
2023-05-19T07:12:42.596Z,102815.75
2023-05-19T07:15:29.172Z,102824.53
2023-05-19T07:18:15.990Z,102814.16
2023-05-19T07:21:02.615Z,102817.59
2023-05-19T07:23:49.347Z,102820.31
2023-05-19T07:26:37.519Z,102819.47
2023-05-19T07:29:24.063Z,102821.25
2023-05-19T07:32:10.885Z,102828.09
2023-05-19T07:34:57.500Z,102831.22
2023-05-19T07:37:45.005Z,102839.94
2023-05-19T07:40:31.885Z,102838.69
2023-05-19T07:43:20.358Z,102845.00
2023-05-19T07:46:08.063Z,102850.59
2023-05-19T07:48:55.392Z,102840.63
2023-05-19T07:51:43.249Z,102846.03
2023-05-19T07:54:31.245Z,102861.00
2023-05-19T07:57:19.308Z,102858.50
2023-05-19T08:00:12.663Z,102856.09
2023-05-19T08:03:02.082Z,102859.38
2023-05-19T08:05:49.103Z,102858.88
2023-05-19T08:08:35.870Z,102858.88
2023-05-19T08:11:22.841Z,102861.25
2023-05-19T08:14:09.464Z,102856.44
2023-05-19T08:16:57.490Z,102860.63
2023-05-19T08:19:44.979Z,102862.97
2023-05-19T08:22:31.683Z,102857.94
2023-05-19T08:25:19.839Z,102857.00
2023-05-19T08:28:06.216Z,102844.84
2023-05-19T08:30:53.506Z,102848.41
2023-05-19T08:33:41.366Z,102846.38
2023-05-19T08:36:28.823Z,102846.53
2023-05-19T08:39:17.624Z,102841.88
2023-05-19T08:42:03.970Z,102842.81
2023-05-19T08:44:50.767Z,102830.81
2023-05-19T08:47:37.680Z,102840.59
2023-05-19T08:50:28.987Z,102830.16
2023-05-19T08:53:32.509Z,102838.97
2023-05-19T08:56:23.206Z,102827.50
2023-05-19T08:59:09.965Z,102825.59
2023-05-19T09:01:56.677Z,102818.56
2023-05-19T09:04:46.124Z,102818.88
2023-05-19T09:07:35.104Z,102817.34
2023-05-19T09:10:21.656Z,102809.97
2023-05-19T09:13:08.435Z,102814.94
2023-05-19T09:15:55.200Z,102811.22
2023-05-19T09:18:42.619Z,102818.06
2023-05-19T09:21:31.466Z,102809.91
2023-05-19T09:24:19.691Z,102804.53
2023-05-19T09:27:06.817Z,102801.88
2023-05-19T09:29:53.477Z,102805.75
2023-05-19T09:32:40.169Z,102807.59
2023-05-19T09:35:26.941Z,102807.19
2023-05-19T09:38:18.641Z,102798.34
2023-05-19T09:41:07.695Z,102807.97
2023-05-19T09:43:56.088Z,102799.91
2023-05-19T09:46:49.612Z,102806.25
2023-05-19T09:49:35.785Z,102811.31
2023-05-19T09:52:22.244Z,102798.22
2023-05-19T09:55:12.009Z,102810.47
2023-05-19T09:58:00.206Z,102802.13
2023-05-19T10:00:47.605Z,102799.34
2023-05-19T10:03:35.148Z,102787.59
2023-05-19T10:06:22.122Z,102803.28
2023-05-19T10:09:08.812Z,102784.97
2023-05-19T10:11:56.313Z,102779.84
2023-05-19T10:14:43.945Z,102760.13
2023-05-19T10:17:30.980Z,102771.59
2023-05-19T10:20:18.426Z,102772.78
2023-05-19T10:23:05.101Z,102769.94
2023-05-19T10:25:53.043Z,102766.09
2023-05-19T10:28:41.671Z,102746.56
2023-05-19T10:31:30.671Z,102755.69
2023-05-19T10:34:41.761Z,102780.44
2023-05-19T10:37:35.559Z,102779.00
2023-05-19T10:40:24.908Z,102769.03
2023-05-19T10:43:26.047Z,102762.09
2023-05-19T10:46:12.906Z,102748.78
2023-05-19T10:49:04.049Z,102755.00
2023-05-19T10:51:53.039Z,102761.03
2023-05-19T10:54:43.365Z,102766.44
2023-05-19T10:57:32.405Z,102763.75
2023-05-19T11:00:28.850Z,102763.94
2023-05-19T11:03:16.389Z,102766.28
2023-05-19T11:06:35.844Z,102768.53
2023-05-19T11:09:38.016Z,102762.28
2023-05-19T11:12:28.042Z,102758.69
2023-05-19T11:15:15.690Z,102765.25
2023-05-19T11:18:03.746Z,102757.63
2023-05-19T11:20:58.653Z,102758.19
2023-05-19T11:23:45.432Z,102755.16
2023-05-19T11:26:43.589Z,102756.41
2023-05-19T11:29:30.026Z,102753.94
2023-05-19T11:32:17.385Z,102764.09
2023-05-19T11:35:04.314Z,102757.16
2023-05-19T11:37:52.398Z,102766.47
2023-05-19T11:40:39.636Z,102760.69
2023-05-19T11:43:27.669Z,102758.81
2023-05-19T11:46:14.802Z,102756.50
2023-05-19T11:49:02.333Z,102749.44
2023-05-19T11:51:48.906Z,102741.41
2023-05-19T11:54:36.766Z,102738.06
2023-05-19T11:57:23.752Z,102744.34
2023-05-19T12:00:14.737Z,102744.34
2023-05-19T12:03:01.813Z,102745.06
2023-05-19T12:05:49.823Z,102741.34
2023-05-19T12:08:37.860Z,102738.69
2023-05-19T12:11:25.018Z,102735.19
2023-05-19T12:14:11.738Z,102737.41
2023-05-19T12:16:59.689Z,102732.59
2023-05-19T12:19:47.589Z,102726.16
2023-05-19T12:22:34.277Z,102721.97
2023-05-19T12:25:21.337Z,102718.66
2023-05-19T12:28:08.257Z,102722.69
2023-05-19T12:30:54.786Z,102719.41
2023-05-19T12:33:43.114Z,102711.31
2023-05-19T12:36:30.894Z,102713.53
2023-05-19T12:39:18.463Z,102723.97
2023-05-19T12:42:09.125Z,102709.03
2023-05-19T12:45:02.975Z,102702.03
2023-05-19T12:47:50.326Z,102693.41
2023-05-19T12:50:38.344Z,102697.19
2023-05-19T12:53:27.698Z,102704.09
2023-05-19T12:56:14.900Z,102704.03
2023-05-19T12:59:02.099Z,102705.91
2023-05-19T13:01:56.706Z,102700.41
2023-05-19T13:04:43.316Z,102693.91
2023-05-19T13:07:31.793Z,102687.75
2023-05-19T13:10:19.013Z,102682.09
2023-05-19T13:13:06.615Z,102672.03
2023-05-19T13:15:53.757Z,102677.13
2023-05-19T13:18:40.785Z,102682.56
2023-05-19T13:21:27.263Z,102682.59
2023-05-19T13:24:15.666Z,102686.47
2023-05-19T13:27:03.281Z,102691.91
2023-05-19T13:29:49.721Z,102686.78
2023-05-19T13:32:36.465Z,102679.63
2023-05-19T13:35:23.496Z,102682.50
2023-05-19T13:38:10.995Z,102684.03
2023-05-19T13:40:58.732Z,102677.16
2023-05-19T13:43:45.245Z,102686.91
2023-05-19T13:46:44.835Z,102677.28
2023-05-19T13:49:32.610Z,102668.50
2023-05-19T13:52:19.661Z,102649.63
2023-05-19T13:55:08.260Z,102640.25
2023-05-19T13:57:56.310Z,102650.50
2023-05-19T14:00:43.083Z,102648.38
2023-05-19T14:03:30.019Z,102652.03
2023-05-19T14:06:17.152Z,102650.06
2023-05-19T14:09:04.623Z,102650.81
2023-05-19T14:11:50.995Z,102630.91
2023-05-19T14:14:39.471Z,102639.72
2023-05-19T14:17:28.120Z,102633.03
2023-05-19T14:20:14.818Z,102633.25
2023-05-19T14:23:01.884Z,102629.06
2023-05-19T14:25:48.817Z,102641.06
2023-05-19T14:28:35.678Z,102637.75
2023-05-19T14:31:24.074Z,102644.91
2023-05-19T14:34:10.801Z,102638.94
2023-05-19T14:36:58.084Z,102630.84
2023-05-19T14:39:44.747Z,102630.72
2023-05-19T14:42:31.396Z,102631.06
2023-05-19T14:45:18.301Z,102639.03
2023-05-19T14:48:06.605Z,102655.47
2023-05-19T14:50:54.057Z,102647.53
2023-05-19T14:53:40.656Z,102654.25
2023-05-19T14:56:27.339Z,102649.84
2023-05-19T14:59:14.504Z,102646.13
2023-05-19T15:02:01.391Z,102645.28
2023-05-19T15:04:49.510Z,102648.84
2023-05-19T15:07:36.149Z,102660.44
2023-05-19T15:10:23.358Z,102664.72
2023-05-19T15:13:09.794Z,102657.81
2023-05-19T15:16:08.418Z,102653.97
2023-05-19T15:19:02.858Z,102656.31
2023-05-19T15:21:51.230Z,102654.41
2023-05-19T15:24:37.929Z,102662.59
2023-05-19T15:27:24.660Z,102649.81
2023-05-19T15:30:12.171Z,102660.59
2023-05-19T15:32:59.046Z,102654.69
2023-05-19T15:35:47.673Z,102647.22
2023-05-19T15:38:37.351Z,102667.38
2023-05-19T15:41:23.875Z,102659.69
2023-05-19T15:44:10.692Z,102668.50
2023-05-19T15:46:57.511Z,102661.38
2023-05-19T15:49:44.739Z,102659.72
2023-05-19T15:52:31.308Z,102659.88
2023-05-19T15:55:19.482Z,102661.06
2023-05-19T15:58:06.144Z,102687.22
2023-05-19T16:00:53.136Z,102684.59
2023-05-19T16:03:39.710Z,102684.63
2023-05-19T16:06:27.677Z,102686.78
2023-05-19T16:09:14.536Z,102672.69
2023-05-19T16:12:03.114Z,102675.53
2023-05-19T16:14:50.099Z,102671.03
2023-05-19T16:17:37.126Z,102674.63
2023-05-19T16:20:26.871Z,102666.69
2023-05-19T16:23:13.616Z,102659.09
2023-05-19T16:26:00.313Z,102664.25
2023-05-19T16:28:48.472Z,102657.25
2023-05-19T16:31:35.379Z,102658.22
2023-05-19T16:34:22.026Z,102690.97
2023-05-19T16:38:26.203Z,102672.66
2023-05-19T16:46:05.515Z,102681.66
2023-05-19T16:48:52.529Z,102660.00
2023-05-19T16:51:39.285Z,102672.34
2023-05-19T16:54:26.094Z,102671.47
2023-05-19T16:57:14.875Z,102671.56
2023-05-19T17:00:02.154Z,102674.31
2023-05-19T17:02:50.251Z,102669.06
2023-05-19T17:05:39.066Z,102679.72
2023-05-19T17:08:25.644Z,102671.22
2023-05-19T17:11:13.522Z,102681.91
2023-05-19T17:14:02.004Z,102679.16
2023-05-19T17:16:48.960Z,102677.53
2023-05-19T17:19:36.727Z,102667.13
2023-05-19T17:22:23.473Z,102671.56
2023-05-19T17:25:13.684Z,102681.28
2023-05-19T17:28:00.169Z,102679.63
2023-05-19T17:30:46.911Z,102676.97
2023-05-19T17:33:33.932Z,102672.50
2023-05-19T17:36:22.040Z,102673.50
2023-05-19T17:39:09.831Z,102692.00
2023-05-19T17:41:56.664Z,102685.88
2023-05-19T17:44:43.412Z,102688.66
2023-05-19T17:47:30.227Z,102684.22
2023-05-19T17:50:17.090Z,102689.47
2023-05-19T17:53:05.652Z,102683.50
2023-05-19T17:55:53.539Z,102693.25
2023-05-19T17:58:41.383Z,102704.53
2023-05-19T18:01:28.336Z,102707.47
2023-05-19T18:04:16.151Z,102711.78
2023-05-19T18:07:04.164Z,102716.13
2023-05-19T18:09:52.902Z,102720.75
2023-05-19T18:12:39.722Z,102719.94
2023-05-19T18:15:26.387Z,102734.84
2023-05-19T18:18:12.999Z,102725.31
2023-05-19T18:20:59.783Z,102725.41
2023-05-19T18:23:46.792Z,102726.28
2023-05-19T18:26:34.611Z,102727.16
2023-05-19T18:29:21.455Z,102729.88
2023-05-19T18:32:11.295Z,102725.59
2023-05-19T18:34:58.198Z,102732.59
2023-05-19T18:37:44.655Z,102748.38
2023-05-19T18:40:31.687Z,102738.00
2023-05-19T18:43:20.326Z,102738.88
2023-05-19T18:46:06.979Z,102744.97
2023-05-19T18:48:54.016Z,102752.00
2023-05-19T18:51:40.429Z,102755.53
2023-05-19T18:54:24.822Z,102757.22
2023-05-19T18:57:11.731Z,102760.78
2023-05-19T18:59:59.572Z,102771.25
2023-05-19T19:02:46.014Z,102774.72
2023-05-19T19:05:32.664Z,102780.00
2023-05-19T19:08:19.637Z,102781.81
2023-05-19T19:11:09.363Z,102782.63
2023-05-19T19:13:56.701Z,102782.66
2023-05-19T19:16:44.865Z,102776.59
2023-05-19T19:19:31.828Z,102786.22
2023-05-19T19:22:18.361Z,102787.06
2023-05-19T19:25:05.633Z,102786.25
2023-05-19T19:27:53.013Z,102789.75
2023-05-19T19:30:39.363Z,102789.78
2023-05-19T19:33:27.615Z,102801.06
2023-05-19T19:36:14.375Z,102805.44
2023-05-19T19:39:01.048Z,102799.31
2023-05-19T19:41:47.910Z,102801.13
2023-05-19T19:44:34.882Z,102804.63
2023-05-19T19:47:21.209Z,102809.88
2023-05-19T19:50:10.709Z,102802.91
2023-05-19T19:52:57.384Z,102802.03
2023-05-19T19:55:44.407Z,102804.66
2023-05-19T19:58:31.617Z,102798.56
2023-05-19T20:01:20.426Z,102803.81
2023-05-19T20:04:07.012Z,102797.75
2023-05-19T20:06:54.894Z,102801.25
2023-05-19T20:09:41.529Z,102812.53
2023-05-19T20:12:30.062Z,102789.94
2023-05-19T20:15:16.948Z,102792.53
2023-05-19T20:18:03.395Z,102793.41
2023-05-19T20:20:50.210Z,102809.94
2023-05-19T20:23:40.706Z,102792.53
2023-05-19T20:26:27.152Z,102803.00
2023-05-19T20:29:14.109Z,102802.97
2023-05-19T20:32:01.019Z,102803.84
2023-05-19T20:34:47.807Z,102801.25
2023-05-19T20:37:34.346Z,102802.97
2023-05-19T20:40:22.528Z,102813.41
2023-05-19T20:43:09.446Z,102809.94
2023-05-19T20:45:56.179Z,102815.16
2023-05-19T20:48:42.862Z,102819.53
2023-05-19T20:51:29.660Z,102824.69
2023-05-19T20:54:16.852Z,102820.38
2023-05-19T20:57:09.061Z,102817.78
2023-05-19T20:59:55.403Z,102822.13
2023-05-19T21:02:42.216Z,102819.53
2023-05-19T21:05:29.166Z,102813.41
2023-05-19T21:08:15.768Z,102822.97
2023-05-19T21:11:02.722Z,102819.50
2023-05-19T21:13:51.324Z,102816.91
2023-05-19T21:16:38.843Z,102823.84
2023-05-19T21:19:25.904Z,102821.22
2023-05-19T21:22:12.482Z,102828.16
2023-05-19T21:24:59.168Z,102834.22
2023-05-19T21:27:46.696Z,102823.78
2023-05-19T21:30:35.132Z,102822.91
2023-05-19T21:33:21.603Z,102819.44
2023-05-19T21:36:08.944Z,102815.97
2023-05-19T21:38:55.779Z,102819.44
2023-05-19T21:41:42.530Z,102821.16
2023-05-19T21:44:29.316Z,102819.44
2023-05-19T21:47:17.719Z,102816.81
2023-05-19T21:50:04.759Z,102815.91
2023-05-19T21:52:51.455Z,102813.28
2023-05-19T21:55:39.271Z,102820.22
2023-05-19T21:58:26.579Z,102813.28
2023-05-19T22:01:13.352Z,102818.47
2023-05-19T22:04:01.678Z,102814.13
2023-05-19T22:06:48.661Z,102816.75
2023-05-19T22:09:35.424Z,102811.53
2023-05-19T22:12:23.178Z,102808.91
2023-05-19T22:15:11.119Z,102809.75
2023-05-19T22:17:57.881Z,102809.75
2023-05-19T22:20:46.027Z,102805.38
2023-05-19T22:23:32.619Z,102803.59
2023-05-19T22:26:19.155Z,102807.09
2023-05-19T22:29:05.923Z,102805.34
2023-05-19T22:31:52.853Z,102805.28
2023-05-19T22:34:39.867Z,102811.31
2023-05-19T22:37:29.003Z,102813.03
2023-05-19T22:40:15.720Z,102814.75
2023-05-19T22:43:02.230Z,102806.00
2023-05-19T22:45:49.394Z,102809.41
2023-05-19T22:48:36.014Z,102810.22
2023-05-19T22:51:22.684Z,102812.75
2023-05-19T22:54:10.819Z,102808.38
2023-05-19T22:56:57.667Z,102813.50
2023-05-19T22:59:44.554Z,102810.91
2023-05-19T23:02:31.506Z,102804.84
2023-05-19T23:05:18.164Z,102806.56
2023-05-19T23:08:04.932Z,102814.38
2023-05-19T23:10:53.955Z,102809.19
2023-05-19T23:13:40.667Z,102805.63
2023-05-19T23:16:27.274Z,102811.59
2023-05-19T23:19:14.055Z,102812.44
2023-05-19T23:22:00.887Z,102819.41
2023-05-19T23:24:47.507Z,102817.72
2023-05-19T23:27:36.250Z,102812.44
2023-05-19T23:30:23.055Z,102819.38
2023-05-19T23:33:09.758Z,102812.34
2023-05-19T23:35:56.401Z,102817.56
2023-05-19T23:38:43.392Z,102814.88
2023-05-19T23:41:30.197Z,102819.16
2023-05-19T23:44:19.471Z,102820.91
2023-05-19T23:47:06.954Z,102819.06
2023-05-19T23:49:53.494Z,102822.50
2023-05-19T23:52:40.230Z,102824.22
2023-05-19T23:55:27.012Z,102826.88
2023-05-19T23:58:13.724Z,102819.94
